Gold Beach, OR

4:07 AM PDT on June 30, 2015 (GMT -0700)
MesoWest | | Change Station
CLOSE
Current Station
Personal Weather Station
Location: Gold Beach, OR
Elevation: 16 ft
Nearby Weather Stations

Elev 16 ft 42.41 °N, 124.42 °W | Updated 28 minutes ago

Overcast
Overcast
55 °F
Feels Like 55 °F
N
6
Wind Variable Wind from NNW
Gusts 0.0 mph

Today
High -- | Low -- °F
--% Chance of Precip.
Yesterday
High -- | Low -- °F
Precip. -- in
5:43 AM 8:58 PM
Waxing Gibbous, 97% visible
Pressure 30.05 in
Visibility 2.5 miles
Clouds Overcast 200 ft
Dew Point 55 °F
Humidity 100%
Rainfall in
Snow Depth Not available.
UV 0 out of 12
Pollen 8.00 out of 12
Air Quality Not available.
Flu Activity Sporadic
SPECI KCEC 301046Z AUTO 00000KT 2 1/2SM BR OVC002 12/12 A3005 RMK AO2 T01220122

More Conditions Fewer Conditions

Pressure 30.05 in
Visibility 2.5 miles
Clouds Overcast 200 ft
Dew Point 55 °F
Humidity 100%
Rainfall in
Snow Depth Not available.
UV 0 out of 12
Pollen 8.00 out of 12
Air Quality Not available.
Flu Activity Sporadic
SPECI KCEC 301046Z AUTO 00000KT 2 1/2SM BR OVC002 12/12 A3005 RMK AO2 T01220122

More Conditions Fewer Conditions

10-Day Weather Forecast

×

Almanac

Astronomy

Jun. 30, 2015 Rise Set
Actual Time
Civil Twilight
Nautical Twilight
Astronomical Twilight
Moon
Length of Visible Light
Length of Day
Tomorrow will be .
, % of the Moon is Illuminated

Today's Extremes

State Highs State Lows

Community

WunderPhotos

Upload Photos

1,833,975 photos uploaded!

WunderBlogs® & News

Nearby

Air Quality

  Air Quality AQ Index Pollutant
Not available.

Snow Depth

Station Depth Elevation

Earthquake Activity

City Distance Mag. Time & Date
Minimum magnitude displayed is 2.5.

Coastal Water Temperatures

Place Temperature

Stations

Nearby Weather Stations

Station Location Temp. Windchill Dew Point Humidity Wind Precip. Elev Updated Type